Millardsville, Pennsylvania
Current Conditions -  °F | °C
As of 12:58 PM on Thursday 23 Oct 2014 (Local Time) from KMUI Reporting Station
Overcast Overcast  
Wind Chill: 57°   Ceiling: 2800
Heat Index: 57°   Visibility: 10mi
Dew Point: 47°   Wind: 13mph
Humidity: 71%   Direction: 330°NNW
Pressure: 29.84"   Gusts: 29mph
Location:  40.3869°N, 76.3173°W
Report Text: KMUI 231658Z AUTO 33011G25KT 280V010 10SM OVC028 14/09 A2984 RMK AO2 PK WND 34028/11 OVC V BKN SLP108 T01370086 $
Loading
Personal Weather Stations






























Interactive Weather Map
Tropical Storm Tracking
New forecast layout! Learn more

10-Day Weather Forecast

Advertisements
Track Severe Weather on mobile